Ocean King — CZ2591 — position and weather

sailwx.info

Track history (hours):
 
Tides and Currents Weather Stations Pressure Air Temp Water Temp Dewpoint Dewpoint Depression Visibility Wind Speed Wind Dir Waves Ship Positions

Ocean King

Last reported at 2014-Aug-01 15:32 UTC. Time now 2014-Aug-01 15:59 UTC.
Position N 49°14' W 124°49'.

Length 29 m.

Type: Fishing. MMSI: 316003514.

Date/timePositionNaut miles runAvg speedWind from/ knotsBaromVisibWave heightAir tempDewpointWater temp
2014-Aug-01 15:32N 49°14' W 124°49'0 0.0
2014-Aug-01 14:32N 49°14' W 124°49'0 0.0
2014-Aug-01 13:32N 49°14' W 124°49'0 0.0
2014-Aug-01 12:32N 49°14' W 124°49'0 0.0
2014-Aug-01 11:29N 49°14' W 124°49'0 0.0
2014-Aug-01 10:29N 49°14' W 124°49'0 0.0
2014-Aug-01 09:32N 49°14' W 124°49'0 0.0
2014-Aug-01 08:32N 49°14' W 124°49'0 0.0
2014-Aug-01 07:23N 49°14' W 124°49'0 0.0
2014-Aug-01 06:23N 49°14' W 124°49'0 0.0
2014-Aug-01 05:29N 49°14' W 124°49'0 0.0
2014-Aug-01 04:29N 49°14' W 124°49'0 0.0
2014-Aug-01 03:29N 49°14' W 124°49'0 0.0
2014-Aug-01 02:29N 49°14' W 124°49'0 0.0
2014-Aug-01 01:29N 49°14' W 124°49'0 0.0
2014-Aug-01 00:23N 49°14' W 124°49'0 0.0
2014-Jul-31 23:32N 49°14' W 124°49'0 0.0
2014-Jul-31 22:32N 49°14' W 124°49'0 0.0
2014-Jul-31 21:29N 49°14' W 124°49'0 0.0
2014-Jul-31 20:32N 49°14' W 124°49'0 0.0
2014-Jul-31 19:32N 49°14' W 124°49'0 0.0
2014-Jul-31 18:32N 49°14' W 124°49'0 0.0
2014-Jul-31 17:29N 49°14' W 124°49'0 0.0
2014-Jul-31 16:29N 49°14' W 124°49'0 0.0
2014-Jul-31 15:32N 49°14' W 124°49'0 0.0
2014-Jul-31 14:32N 49°14' W 124°49'0 0.0
2014-Jul-31 13:29N 49°14' W 124°49'0 0.0
2014-Jul-31 12:29N 49°14' W 124°49'0 0.0
2014-Jul-31 11:32N 49°14' W 124°49'0 0.0
2014-Jul-31 10:32N 49°14' W 124°49'0 0.0
2014-Jul-31 09:32N 49°14' W 124°49'0 0.0
2014-Jul-31 08:32N 49°14' W 124°49'0 0.0
2014-Jul-31 07:29N 49°14' W 124°49'0 0.0
2014-Jul-31 06:23N 49°14' W 124°49'0 0.0
2014-Jul-31 05:29N 49°14' W 124°49'0 0.0
2014-Jul-31 04:29N 49°14' W 124°49'0 0.0
2014-Jul-31 03:29N 49°14' W 124°49'0 0.0
2014-Jul-31 02:29N 49°14' W 124°49'0 0.0
2014-Jul-31 01:29N 49°14' W 124°49'0 0.0
2014-Jul-31 00:29N 49°14' W 124°49'0 0.0
2014-Jul-30 23:29N 49°14' W 124°49'0 0.0
2014-Jul-30 22:29N 49°14' W 124°49'0 0.0
2014-Jul-30 21:29N 49°14' W 124°49'0 0.0
2014-Jul-30 19:29N 49°14' W 124°49'0 0.0
2014-Jul-30 18:32N 49°14' W 124°49'0 0.0
2014-Jul-30 17:32N 49°14' W 124°49'0 0.0
2014-Jul-30 16:32N 49°14' W 124°49'0 0.0
2014-Jul-30 15:32N 49°14' W 124°49'0 0.0
2014-Jul-30 14:32N 49°14' W 124°49'0 0.0
2014-Jul-30 13:29N 49°14' W 124°49'0 0.0
2014-Jul-30 12:23N 49°14' W 124°49'0 0.0
2014-Jul-30 11:23N 49°14' W 124°49'0 0.0
2014-Jul-30 10:29N 49°14' W 124°49'0 0.0
2014-Jul-30 09:29N 49°14' W 124°49'0 0.0
2014-Jul-30 08:23N 49°14' W 124°49'0 0.0
2014-Jul-30 07:32N 49°14' W 124°49'0 0.0
2014-Jul-30 06:32N 49°14' W 124°49'0 0.0
2014-Jul-30 05:32N 49°14' W 124°49'0 0.0
2014-Jul-30 04:29N 49°14' W 124°49'0 0.0
2014-Jul-30 03:29N 49°14' W 124°49'0 0.0
2014-Jul-30 02:29N 49°14' W 124°49'0 0.0
2014-Jul-30 01:29N 49°14' W 124°49'0 0.0
2014-Jul-30 00:29N 49°14' W 124°49'0 0.0
2014-Jul-29 23:29N 49°14' W 124°49'0 0.0
2014-Jul-29 22:29N 49°14' W 124°49'0 0.0
2014-Jul-29 21:30N 49°14' W 124°49'0 0.0
2014-Jul-29 20:29N 49°14' W 124°49'0 0.0
2014-Jul-29 19:11N 49°14' W 124°49'0 0.0
2014-Jul-29 18:30N 49°14' W 124°49'0 0.0
2014-Jul-29 17:30N 49°14' W 124°49'  
2014-Jul-25 18:23N 49°14' W 124°49'3 3.1
2014-Jul-25 17:33N 49°12' W 124°49'9 9.0
2014-Jul-25 16:33N 49°03' W 124°51'9 8.5
2014-Jul-25 15:30N 48°57' W 125°02'8 8.2
2014-Jul-25 14:33N 48°54' W 125°12'5 5.1
2014-Jul-25 13:33N 48°49' W 125°16'9 8.6
2014-Jul-25 12:33N 48°49' W 125°29'9 8.5
2014-Jul-25 11:33N 48°44' W 125°18'1010.5
2014-Jul-25 10:34N 48°39' W 125°04'1010.2
2014-Jul-25 09:33N 48°35' W 124°50'10 9.7
2014-Jul-25 08:33N 48°32' W 124°36'9 8.9
2014-Jul-25 07:33N 48°28' W 124°24'9 9.1
2014-Jul-25 06:33N 48°26' W 124°11'10 9.5
2014-Jul-25 05:31N 48°22' W 123°57'10 9.7
2014-Jul-25 04:32N 48°19' W 123°43'1010.0
2014-Jul-25 03:32N 48°20' W 123°28'9 9.7
2014-Jul-25 02:34N 48°26' W 123°17'10 9.8
2014-Jul-25 01:33N 48°35' W 123°19'9 8.8
2014-Jul-25 00:33N 48°42' W 123°27'8 8.3
2014-Jul-24 23:33N 48°49' W 123°34'10 9.5
2014-Jul-24 22:33N 48°57' W 123°42'9 9.3
2014-Jul-24 21:33N 49°06' W 123°47'4 3.4
2014-Jul-24 20:18N 49°09' W 123°52'0 0.0
2014-Jul-24 12:30N 49°09' W 123°52'0 0.0
2014-Jul-24 11:30N 49°09' W 123°52'0 0.0
2014-Jul-24 09:33N 49°09' W 123°52'0 0.0
2014-Jul-24 07:12N 49°09' W 123°52'0 0.0
2014-Jul-24 06:30N 49°09' W 123°52'0 0.0
2014-Jul-24 05:30N 49°09' W 123°52'0 0.0
2014-Jul-24 04:30N 49°09' W 123°52'0 0.0
2014-Jul-24 00:31N 49°09' W 123°52'6 5.7
2014-Jul-23 23:33N 49°13' W 123°46'10 9.7
2014-Jul-23 22:33N 49°05' W 123°37'10 9.6
2014-Jul-23 21:33N 48°56' W 123°31'10 9.7
2014-Jul-23 20:33N 48°48' W 123°23'9 9.2
2014-Jul-23 19:33N 48°39' W 123°21'10 9.6
2014-Jul-23 18:33N 48°30' W 123°16'9 8.8
2014-Jul-23 17:33N 48°22' W 123°21'9 9.1
2014-Jul-23 16:32N 48°18' W 123°34'9 8.7
2014-Jul-23 15:33N 48°20' W 123°47'8 8.2
2014-Jul-23 14:33N 48°22' W 123°59'7 7.4
2014-Jul-23 13:33N 48°24' W 124°09'7 7.4
2014-Jul-23 12:33N 48°27' W 124°19'8 7.6
2014-Jul-23 11:33N 48°30' W 124°30'7 7.0
2014-Jul-23 10:33N 48°33' W 124°40'8 8.0
2014-Jul-23 09:33N 48°36' W 124°51'8 8.3
2014-Jul-23 08:33N 48°39' W 125°03'9 8.4
2014-Jul-23 07:33N 48°43' W 125°14'8 8.6
2014-Jul-23 06:33N 48°47' W 125°25'9 9.0
2014-Jul-23 05:33N 48°52' W 125°36'9 9.1
2014-Jul-23 04:33N 48°58' W 125°46'9 9.3
2014-Jul-23 03:33N 49°04' W 125°57'9 8.9
2014-Jul-23 02:33N 49°11' W 126°07'5 0.5
2014-Jul-22 17:33N 49°14' W 126°01'7 6.2
2014-Jul-22 16:29N 49°09' W 125°54'  
Track history (hours):
 
Tides and Currents Weather Stations Pressure Air Temp Water Temp Dewpoint Dewpoint Depression Visibility Wind Speed Wind Dir Waves Ship Positions

Ocean King

Last reported at 2014-Aug-01 15:32 UTC. Time now 2014-Aug-01 15:59 UTC.
Position N 49°14' W 124°49'.

Length 29 m.

Type: Fishing. MMSI: 316003514.

Date/timePositionNaut miles runAvg speedWind from/ knotsBaromVisibWave heightAir tempDewpointWater temp
2014-Aug-01 15:32N 49°14' W 124°49'0 0.0
2014-Aug-01 14:32N 49°14' W 124°49'0 0.0
2014-Aug-01 13:32N 49°14' W 124°49'0 0.0
2014-Aug-01 12:32N 49°14' W 124°49'0 0.0
2014-Aug-01 11:29N 49°14' W 124°49'0 0.0
2014-Aug-01 10:29N 49°14' W 124°49'0 0.0
2014-Aug-01 09:32N 49°14' W 124°49'0 0.0
2014-Aug-01 08:32N 49°14' W 124°49'0 0.0
2014-Aug-01 07:23N 49°14' W 124°49'0 0.0
2014-Aug-01 06:23N 49°14' W 124°49'0 0.0
2014-Aug-01 05:29N 49°14' W 124°49'0 0.0
2014-Aug-01 04:29N 49°14' W 124°49'0 0.0
2014-Aug-01 03:29N 49°14' W 124°49'0 0.0
2014-Aug-01 02:29N 49°14' W 124°49'0 0.0
2014-Aug-01 01:29N 49°14' W 124°49'0 0.0
2014-Aug-01 00:23N 49°14' W 124°49'0 0.0
2014-Jul-31 23:32N 49°14' W 124°49'0 0.0
2014-Jul-31 22:32N 49°14' W 124°49'0 0.0
2014-Jul-31 21:29N 49°14' W 124°49'0 0.0
2014-Jul-31 20:32N 49°14' W 124°49'0 0.0
2014-Jul-31 19:32N 49°14' W 124°49'0 0.0
2014-Jul-31 18:32N 49°14' W 124°49'0 0.0
2014-Jul-31 17:29N 49°14' W 124°49'0 0.0
2014-Jul-31 16:29N 49°14' W 124°49'0 0.0
2014-Jul-31 15:32N 49°14' W 124°49'0 0.0
2014-Jul-31 14:32N 49°14' W 124°49'0 0.0
2014-Jul-31 13:29N 49°14' W 124°49'0 0.0
2014-Jul-31 12:29N 49°14' W 124°49'0 0.0
2014-Jul-31 11:32N 49°14' W 124°49'0 0.0
2014-Jul-31 10:32N 49°14' W 124°49'0 0.0
2014-Jul-31 09:32N 49°14' W 124°49'0 0.0
2014-Jul-31 08:32N 49°14' W 124°49'0 0.0
2014-Jul-31 07:29N 49°14' W 124°49'0 0.0
2014-Jul-31 06:23N 49°14' W 124°49'0 0.0
2014-Jul-31 05:29N 49°14' W 124°49'0 0.0
2014-Jul-31 04:29N 49°14' W 124°49'0 0.0
2014-Jul-31 03:29N 49°14' W 124°49'0 0.0
2014-Jul-31 02:29N 49°14' W 124°49'0 0.0
2014-Jul-31 01:29N 49°14' W 124°49'0 0.0
2014-Jul-31 00:29N 49°14' W 124°49'0 0.0
2014-Jul-30 23:29N 49°14' W 124°49'0 0.0
2014-Jul-30 22:29N 49°14' W 124°49'0 0.0
2014-Jul-30 21:29N 49°14' W 124°49'0 0.0
2014-Jul-30 19:29N 49°14' W 124°49'0 0.0
2014-Jul-30 18:32N 49°14' W 124°49'0 0.0
2014-Jul-30 17:32N 49°14' W 124°49'0 0.0
2014-Jul-30 16:32N 49°14' W 124°49'0 0.0
2014-Jul-30 15:32N 49°14' W 124°49'0 0.0
2014-Jul-30 14:32N 49°14' W 124°49'0 0.0
2014-Jul-30 13:29N 49°14' W 124°49'0 0.0
2014-Jul-30 12:23N 49°14' W 124°49'0 0.0
2014-Jul-30 11:23N 49°14' W 124°49'0 0.0
2014-Jul-30 10:29N 49°14' W 124°49'0 0.0
2014-Jul-30 09:29N 49°14' W 124°49'0 0.0
2014-Jul-30 08:23N 49°14' W 124°49'0 0.0
2014-Jul-30 07:32N 49°14' W 124°49'0 0.0
2014-Jul-30 06:32N 49°14' W 124°49'0 0.0
2014-Jul-30 05:32N 49°14' W 124°49'0 0.0
2014-Jul-30 04:29N 49°14' W 124°49'0 0.0
2014-Jul-30 03:29N 49°14' W 124°49'0 0.0
2014-Jul-30 02:29N 49°14' W 124°49'0 0.0
2014-Jul-30 01:29N 49°14' W 124°49'0 0.0
2014-Jul-30 00:29N 49°14' W 124°49'0 0.0
2014-Jul-29 23:29N 49°14' W 124°49'0 0.0
2014-Jul-29 22:29N 49°14' W 124°49'0 0.0
2014-Jul-29 21:30N 49°14' W 124°49'0 0.0
2014-Jul-29 20:29N 49°14' W 124°49'0 0.0
2014-Jul-29 19:11N 49°14' W 124°49'0 0.0
2014-Jul-29 18:30N 49°14' W 124°49'0 0.0
2014-Jul-29 17:30N 49°14' W 124°49'  
2014-Jul-25 18:23N 49°14' W 124°49'3 3.1
2014-Jul-25 17:33N 49°12' W 124°49'9 9.0
2014-Jul-25 16:33N 49°03' W 124°51'9 8.5
2014-Jul-25 15:30N 48°57' W 125°02'8 8.2
2014-Jul-25 14:33N 48°54' W 125°12'5 5.1
2014-Jul-25 13:33N 48°49' W 125°16'9 8.6
2014-Jul-25 12:33N 48°49' W 125°29'9 8.5
2014-Jul-25 11:33N 48°44' W 125°18'1010.5
2014-Jul-25 10:34N 48°39' W 125°04'1010.2
2014-Jul-25 09:33N 48°35' W 124°50'10 9.7
2014-Jul-25 08:33N 48°32' W 124°36'9 8.9
2014-Jul-25 07:33N 48°28' W 124°24'9 9.1
2014-Jul-25 06:33N 48°26' W 124°11'10 9.5
2014-Jul-25 05:31N 48°22' W 123°57'10 9.7
2014-Jul-25 04:32N 48°19' W 123°43'1010.0
2014-Jul-25 03:32N 48°20' W 123°28'9 9.7
2014-Jul-25 02:34N 48°26' W 123°17'10 9.8
2014-Jul-25 01:33N 48°35' W 123°19'9 8.8
2014-Jul-25 00:33N 48°42' W 123°27'8 8.3
2014-Jul-24 23:33N 48°49' W 123°34'10 9.5
2014-Jul-24 22:33N 48°57' W 123°42'9 9.3
2014-Jul-24 21:33N 49°06' W 123°47'4 3.4
2014-Jul-24 20:18N 49°09' W 123°52'0 0.0
2014-Jul-24 12:30N 49°09' W 123°52'0 0.0
2014-Jul-24 11:30N 49°09' W 123°52'0 0.0
2014-Jul-24 09:33N 49°09' W 123°52'0 0.0
2014-Jul-24 07:12N 49°09' W 123°52'0 0.0
2014-Jul-24 06:30N 49°09' W 123°52'0 0.0
2014-Jul-24 05:30N 49°09' W 123°52'0 0.0
2014-Jul-24 04:30N 49°09' W 123°52'0 0.0
2014-Jul-24 00:31N 49°09' W 123°52'6 5.7
2014-Jul-23 23:33N 49°13' W 123°46'10 9.7
2014-Jul-23 22:33N 49°05' W 123°37'10 9.6
2014-Jul-23 21:33N 48°56' W 123°31'10 9.7
2014-Jul-23 20:33N 48°48' W 123°23'9 9.2
2014-Jul-23 19:33N 48°39' W 123°21'10 9.6
2014-Jul-23 18:33N 48°30' W 123°16'9 8.8
2014-Jul-23 17:33N 48°22' W 123°21'9 9.1
2014-Jul-23 16:32N 48°18' W 123°34'9 8.7
2014-Jul-23 15:33N 48°20' W 123°47'8 8.2
2014-Jul-23 14:33N 48°22' W 123°59'7 7.4
2014-Jul-23 13:33N 48°24' W 124°09'7 7.4
2014-Jul-23 12:33N 48°27' W 124°19'8 7.6
2014-Jul-23 11:33N 48°30' W 124°30'7 7.0
2014-Jul-23 10:33N 48°33' W 124°40'8 8.0
2014-Jul-23 09:33N 48°36' W 124°51'8 8.3
2014-Jul-23 08:33N 48°39' W 125°03'9 8.4
2014-Jul-23 07:33N 48°43' W 125°14'8 8.6
2014-Jul-23 06:33N 48°47' W 125°25'9 9.0
2014-Jul-23 05:33N 48°52' W 125°36'9 9.1
2014-Jul-23 04:33N 48°58' W 125°46'9 9.3
2014-Jul-23 03:33N 49°04' W 125°57'9 8.9
2014-Jul-23 02:33N 49°11' W 126°07'5 0.5
2014-Jul-22 17:33N 49°14' W 126°01'7 6.2
2014-Jul-22 16:29N 49°09' W 125°54'  

Dump ship's entire track history